This is the latest recevied weather packets stored in our database for station/object VK3BKO-13. If no packets are shown the sender has not sent any weather packets the latest 10 day(s).
| Time | Temp. | Humidity | Pressure | Rain* | Wind** | Luminosity | Snow |
|---|---|---|---|---|---|---|---|
| 1777556824 | 14.44° C | 78% | 1023.7 hPa | 0 mm | - | 0 W/m² | - |
| 1777555924 | 15.56° C | 74% | 1024.1 hPa | 0 mm | - | 0 W/m² | - |
| 1777555024 | 15.56° C | 73% | 1024.1 hPa | 0 mm | - | 0 W/m² | - |
| 1777554124 | 16.67° C | 71% | 1024.1 hPa | 0 mm | - | 0 W/m² | - |
| 1777553224 | 16.67° C | 69% | 1024.1 hPa | 0 mm | - | 0 W/m² | - |
| 1777552324 | 16.11° C | 71% | 1024.4 hPa | 0 mm | - | 0 W/m² | - |
| 1777551424 | 14.44° C | 78% | 1024.4 hPa | 0 mm | - | 0 W/m² | - |
| 1777550524 | 14.44° C | 79% | 1024.4 hPa | 0 mm | - | 0 W/m² | - |
| 1777549624 | 14.44° C | 78% | 1024.4 hPa | 0 mm | - | 0 W/m² | - |
| 1777548723 | 15° C | 77% | 1024.4 hPa | 0 mm | - | 0 W/m² | - |
| 1777547824 | 14.44° C | 76% | 1024.8 hPa | 0 mm | - | 0 W/m² | - |
| 1777546924 | 15° C | 75% | 1024.1 hPa | 0 mm | - | 0 W/m² | - |
| 1777546023 | 15° C | 74% | 1024.4 hPa | 0 mm | - | 0 W/m² | - |
| 1777545124 | 15.56° C | 73% | 1024.4 hPa | 0 mm | - | 0 W/m² | - |
| 1777544224 | 15.56° C | 72% | 1024.4 hPa | 0 mm | - | 0 W/m² | - |
| 1777543324 | 16.11° C | 70% | 1024.4 hPa | 0 mm | - | 0 W/m² | - |
| 1777542423 | 16.11° C | 69% | 1024.8 hPa | 0 mm | - | 0 W/m² | - |
| 1777541525 | 17.22° C | 67% | 1024.8 hPa | 0 mm | - | 0 W/m² | - |
| 1777540624 | 17.78° C | 67% | 1024.4 hPa | 0 mm | - | 0 W/m² | - |
| 1777539731 | 17.78° C | 67% | 1024.4 hPa | 0 mm | - | 0 W/m² | - |
| 1777538823 | 18.33° C | 66% | 1024.1 hPa | 0 mm | - | 0 W/m² | - |
| 1777537923 | 18.33° C | 64% | 1024.1 hPa | 0 mm | - | 0 W/m² | - |
| 1777537023 | 18.89° C | 59% | 1024.1 hPa | 0 mm | - | 0 W/m² | - |
| 1777536124 | 20° C | 58% | 1024.1 hPa | 0 mm | - | 0 W/m² | - |
| 1777535224 | 20.56° C | 54% | 1023.7 hPa | 0 mm | - | 0 W/m² | - |
* Rain latest hour (hover to see other rain measurements)
** Current wind speed in m/s (hover to see current wind gust speed)